sensor_id;sensor_type;location;lat;lon;timestamp;P1;durP1;ratioP1;P2;durP2;ratioP2
65174;SDS011;51761;42.126;24.752;2022-07-24T00:01:37;14.38;;;4.13;;
65174;SDS011;51761;42.126;24.752;2022-07-24T00:04:03;9.35;;;4.45;;
65174;SDS011;51761;42.126;24.752;2022-07-24T00:06:29;12.88;;;4.28;;
65174;SDS011;51761;42.126;24.752;2022-07-24T00:08:56;10.88;;;3.95;;
65174;SDS011;51761;42.126;24.752;2022-07-24T00:11:21;13.80;;;5.03;;
65174;SDS011;51761;42.126;24.752;2022-07-24T00:13:47;14.10;;;4.57;;
65174;SDS011;51761;42.126;24.752;2022-07-24T00:16:13;11.70;;;4.68;;
65174;SDS011;51761;42.126;24.752;2022-07-24T00:18:38;9.18;;;4.72;;
65174;SDS011;51761;42.126;24.752;2022-07-24T00:21:04;9.15;;;4.88;;
65174;SDS011;51761;42.126;24.752;2022-07-24T00:23:30;14.88;;;4.88;;
65174;SDS011;51761;42.126;24.752;2022-07-24T00:25:55;13.27;;;5.18;;
65174;SDS011;51761;42.126;24.752;2022-07-24T00:28:21;7.82;;;4.65;;
65174;SDS011;51761;42.126;24.752;2022-07-24T00:30:47;9.35;;;4.90;;
65174;SDS011;51761;42.126;24.752;2022-07-24T00:33:12;9.25;;;4.88;;
65174;SDS011;51761;42.126;24.752;2022-07-24T00:35:38;8.38;;;4.72;;
65174;SDS011;51761;42.126;24.752;2022-07-24T00:38:03;14.63;;;5.03;;
65174;SDS011;51761;42.126;24.752;2022-07-24T00:40:29;11.55;;;5.80;;
65174;SDS011;51761;42.126;24.752;2022-07-24T00:42:56;12.18;;;6.47;;
65174;SDS011;51761;42.126;24.752;2022-07-24T00:45:22;10.55;;;6.38;;
65174;SDS011;51761;42.126;24.752;2022-07-24T00:47:49;13.20;;;7.15;;
65174;SDS011;51761;42.126;24.752;2022-07-24T00:50:16;20.52;;;7.35;;
65174;SDS011;51761;42.126;24.752;2022-07-24T00:52:42;13.52;;;6.88;;
65174;SDS011;51761;42.126;24.752;2022-07-24T00:55:11;16.90;;;8.27;;
65174;SDS011;51761;42.126;24.752;2022-07-24T00:57:37;14.95;;;7.80;;
65174;SDS011;51761;42.126;24.752;2022-07-24T01:00:06;14.30;;;8.10;;
65174;SDS011;51761;42.126;24.752;2022-07-24T01:02:33;10.68;;;7.13;;
65174;SDS011;51761;42.126;24.752;2022-07-24T01:04:59;10.05;;;6.95;;
65174;SDS011;51761;42.126;24.752;2022-07-24T01:07:25;12.15;;;6.80;;
65174;SDS011;51761;42.126;24.752;2022-07-24T01:09:51;15.43;;;7.38;;
65174;SDS011;51761;42.126;24.752;2022-07-24T01:12:17;18.42;;;6.82;;
65174;SDS011;51761;42.126;24.752;2022-07-24T01:14:43;14.55;;;7.35;;
65174;SDS011;51761;42.126;24.752;2022-07-24T01:17:09;13.05;;;6.85;;
65174;SDS011;51761;42.126;24.752;2022-07-24T01:19:35;13.55;;;7.30;;
65174;SDS011;51761;42.126;24.752;2022-07-24T01:22:02;22.10;;;7.03;;
65174;SDS011;51761;42.126;24.752;2022-07-24T01:24:27;13.82;;;6.65;;
65174;SDS011;51761;42.126;24.752;2022-07-24T01:26:53;15.30;;;6.63;;
65174;SDS011;51761;42.126;24.752;2022-07-24T01:29:19;11.18;;;6.07;;
65174;SDS011;51761;42.126;24.752;2022-07-24T01:31:44;12.25;;;6.00;;
65174;SDS011;51761;42.126;24.752;2022-07-24T01:34:10;11.48;;;5.97;;
65174;SDS011;51761;42.126;24.752;2022-07-24T01:36:35;14.60;;;6.43;;
65174;SDS011;51761;42.126;24.752;2022-07-24T01:39:01;9.75;;;6.13;;
65174;SDS011;51761;42.126;24.752;2022-07-24T01:41:27;10.35;;;5.72;;
65174;SDS011;51761;42.126;24.752;2022-07-24T01:43:53;9.82;;;5.45;;
65174;SDS011;51761;42.126;24.752;2022-07-24T01:46:18;10.15;;;5.25;;
65174;SDS011;51761;42.126;24.752;2022-07-24T01:48:44;13.60;;;6.47;;
65174;SDS011;51761;42.126;24.752;2022-07-24T01:51:09;12.60;;;6.28;;
65174;SDS011;51761;42.126;24.752;2022-07-24T01:53:35;8.95;;;5.75;;
65174;SDS011;51761;42.126;24.752;2022-07-24T01:56:01;19.30;;;7.10;;
65174;SDS011;51761;42.126;24.752;2022-07-24T01:58:27;14.68;;;7.07;;
65174;SDS011;51761;42.126;24.752;2022-07-24T02:00:52;13.25;;;6.40;;
65174;SDS011;51761;42.126;24.752;2022-07-24T02:03:18;12.85;;;6.35;;
65174;SDS011;51761;42.126;24.752;2022-07-24T02:05:44;9.77;;;5.60;;
65174;SDS011;51761;42.126;24.752;2022-07-24T02:08:10;11.88;;;4.82;;
65174;SDS011;51761;42.126;24.752;2022-07-24T02:10:36;12.15;;;5.80;;
65174;SDS011;51761;42.126;24.752;2022-07-24T02:13:01;11.23;;;5.20;;
65174;SDS011;51761;42.126;24.752;2022-07-24T02:15:27;18.58;;;6.05;;
65174;SDS011;51761;42.126;24.752;2022-07-24T02:17:57;15.13;;;5.53;;
65174;SDS011;51761;42.126;24.752;2022-07-24T02:20:23;15.55;;;5.55;;
65174;SDS011;51761;42.126;24.752;2022-07-24T02:22:50;11.48;;;5.57;;
65174;SDS011;51761;42.126;24.752;2022-07-24T02:25:16;14.35;;;5.75;;
65174;SDS011;51761;42.126;24.752;2022-07-24T02:27:41;9.05;;;4.88;;
65174;SDS011;51761;42.126;24.752;2022-07-24T02:30:08;16.90;;;5.80;;
65174;SDS011;51761;42.126;24.752;2022-07-24T02:32:36;13.25;;;5.20;;
65174;SDS011;51761;42.126;24.752;2022-07-24T02:35:02;8.68;;;5.43;;
65174;SDS011;51761;42.126;24.752;2022-07-24T02:37:27;11.65;;;5.25;;
65174;SDS011;51761;42.126;24.752;2022-07-24T02:39:53;18.33;;;5.75;;
65174;SDS011;51761;42.126;24.752;2022-07-24T02:42:18;12.82;;;6.47;;
65174;SDS011;51761;42.126;24.752;2022-07-24T02:44:44;12.10;;;6.47;;
65174;SDS011;51761;42.126;24.752;2022-07-24T02:47:09;12.88;;;5.80;;
65174;SDS011;51761;42.126;24.752;2022-07-24T02:49:35;8.43;;;4.68;;
65174;SDS011;51761;42.126;24.752;2022-07-24T02:52:01;12.50;;;4.80;;
65174;SDS011;51761;42.126;24.752;2022-07-24T02:54:27;10.30;;;4.68;;
65174;SDS011;51761;42.126;24.752;2022-07-24T02:56:53;11.85;;;5.53;;
65174;SDS011;51761;42.126;24.752;2022-07-24T02:59:18;13.90;;;5.90;;
65174;SDS011;51761;42.126;24.752;2022-07-24T03:01:44;15.10;;;5.28;;
65174;SDS011;51761;42.126;24.752;2022-07-24T03:04:09;18.02;;;5.20;;
65174;SDS011;51761;42.126;24.752;2022-07-24T03:06:35;12.93;;;5.40;;
65174;SDS011;51761;42.126;24.752;2022-07-24T03:09:01;15.50;;;5.82;;
65174;SDS011;51761;42.126;24.752;2022-07-24T03:11:27;18.48;;;5.50;;
65174;SDS011;51761;42.126;24.752;2022-07-24T03:13:52;14.57;;;5.78;;
65174;SDS011;51761;42.126;24.752;2022-07-24T03:16:18;13.77;;;5.85;;
65174;SDS011;51761;42.126;24.752;2022-07-24T03:18:43;12.05;;;4.93;;
65174;SDS011;51761;42.126;24.752;2022-07-24T03:21:16;14.35;;;5.18;;
65174;SDS011;51761;42.126;24.752;2022-07-24T03:23:42;13.98;;;5.22;;
65174;SDS011;51761;42.126;24.752;2022-07-24T03:26:08;20.00;;;5.55;;
65174;SDS011;51761;42.126;24.752;2022-07-24T03:28:34;11.73;;;5.85;;
65174;SDS011;51761;42.126;24.752;2022-07-24T03:30:59;18.15;;;5.57;;
65174;SDS011;51761;42.126;24.752;2022-07-24T03:33:25;11.63;;;6.00;;
65174;SDS011;51761;42.126;24.752;2022-07-24T03:35:54;17.65;;;6.32;;
65174;SDS011;51761;42.126;24.752;2022-07-24T03:38:20;11.32;;;5.13;;
65174;SDS011;51761;42.126;24.752;2022-07-24T03:40:46;15.02;;;6.30;;
65174;SDS011;51761;42.126;24.752;2022-07-24T03:43:12;18.60;;;6.45;;
65174;SDS011;51761;42.126;24.752;2022-07-24T03:45:37;10.63;;;5.85;;
65174;SDS011;51761;42.126;24.752;2022-07-24T03:48:03;14.07;;;6.15;;
65174;SDS011;51761;42.126;24.752;2022-07-24T03:50:30;20.58;;;7.25;;
65174;SDS011;51761;42.126;24.752;2022-07-24T03:52:55;12.55;;;6.05;;
65174;SDS011;51761;42.126;24.752;2022-07-24T03:55:21;16.27;;;6.85;;
65174;SDS011;51761;42.126;24.752;2022-07-24T03:57:46;13.90;;;6.07;;
65174;SDS011;51761;42.126;24.752;2022-07-24T04:00:12;12.48;;;6.50;;
65174;SDS011;51761;42.126;24.752;2022-07-24T04:02:38;15.10;;;5.82;;
65174;SDS011;51761;42.126;24.752;2022-07-24T04:05:05;15.27;;;6.18;;
65174;SDS011;51761;42.126;24.752;2022-07-24T04:07:33;14.45;;;7.43;;
65174;SDS011;51761;42.126;24.752;2022-07-24T04:10:02;19.95;;;7.93;;
65174;SDS011;51761;42.126;24.752;2022-07-24T04:12:29;20.63;;;7.35;;
65174;SDS011;51761;42.126;24.752;2022-07-24T04:14:55;14.30;;;7.03;;
65174;SDS011;51761;42.126;24.752;2022-07-24T04:17:20;13.48;;;7.07;;
65174;SDS011;51761;42.126;24.752;2022-07-24T04:19:45;14.02;;;7.22;;
65174;SDS011;51761;42.126;24.752;2022-07-24T04:22:11;20.80;;;7.88;;
65174;SDS011;51761;42.126;24.752;2022-07-24T04:24:37;19.70;;;7.22;;
65174;SDS011;51761;42.126;24.752;2022-07-24T04:27:02;17.95;;;7.88;;
65174;SDS011;51761;42.126;24.752;2022-07-24T04:29:28;19.83;;;6.70;;
65174;SDS011;51761;42.126;24.752;2022-07-24T04:31:53;18.50;;;8.18;;
65174;SDS011;51761;42.126;24.752;2022-07-24T04:34:19;16.15;;;8.30;;
65174;SDS011;51761;42.126;24.752;2022-07-24T04:36:44;18.75;;;8.30;;
65174;SDS011;51761;42.126;24.752;2022-07-24T04:39:10;18.42;;;8.60;;
65174;SDS011;51761;42.126;24.752;2022-07-24T04:41:35;13.27;;;7.97;;
65174;SDS011;51761;42.126;24.752;2022-07-24T04:44:01;13.55;;;7.70;;
65174;SDS011;51761;42.126;24.752;2022-07-24T04:46:27;23.40;;;7.85;;
65174;SDS011;51761;42.126;24.752;2022-07-24T04:48:53;14.45;;;8.00;;
65174;SDS011;51761;42.126;24.752;2022-07-24T04:51:18;17.75;;;7.93;;
65174;SDS011;51761;42.126;24.752;2022-07-24T04:53:43;18.58;;;7.03;;
65174;SDS011;51761;42.126;24.752;2022-07-24T04:56:09;12.68;;;7.30;;
65174;SDS011;51761;42.126;24.752;2022-07-24T04:58:35;16.80;;;7.22;;
65174;SDS011;51761;42.126;24.752;2022-07-24T05:01:00;23.75;;;8.45;;
65174;SDS011;51761;42.126;24.752;2022-07-24T05:03:26;14.68;;;7.65;;
65174;SDS011;51761;42.126;24.752;2022-07-24T05:05:51;11.60;;;7.13;;
65174;SDS011;51761;42.126;24.752;2022-07-24T05:08:17;16.02;;;7.53;;
65174;SDS011;51761;42.126;24.752;2022-07-24T05:10:42;16.80;;;8.73;;
65174;SDS011;51761;42.126;24.752;2022-07-24T05:13:08;21.25;;;8.25;;
65174;SDS011;51761;42.126;24.752;2022-07-24T05:15:34;27.50;;;15.85;;
65174;SDS011;51761;42.126;24.752;2022-07-24T05:17:59;40.00;;;18.67;;
65174;SDS011;51761;42.126;24.752;2022-07-24T05:20:25;21.63;;;10.27;;
65174;SDS011;51761;42.126;24.752;2022-07-24T05:22:51;15.82;;;8.13;;
65174;SDS011;51761;42.126;24.752;2022-07-24T05:25:16;27.05;;;13.95;;
65174;SDS011;51761;42.126;24.752;2022-07-24T05:27:42;27.17;;;14.82;;
65174;SDS011;51761;42.126;24.752;2022-07-24T05:30:07;28.02;;;12.93;;
65174;SDS011;51761;42.126;24.752;2022-07-24T05:32:33;27.08;;;9.35;;
65174;SDS011;51761;42.126;24.752;2022-07-24T05:34:59;31.38;;;10.27;;
65174;SDS011;51761;42.126;24.752;2022-07-24T05:37:24;24.55;;;11.82;;
65174;SDS011;51761;42.126;24.752;2022-07-24T05:39:50;16.77;;;10.77;;
65174;SDS011;51761;42.126;24.752;2022-07-24T05:42:15;20.55;;;9.10;;
65174;SDS011;51761;42.126;24.752;2022-07-24T05:44:41;21.80;;;9.88;;
65174;SDS011;51761;42.126;24.752;2022-07-24T05:47:07;22.48;;;7.40;;
65174;SDS011;51761;42.126;24.752;2022-07-24T05:49:32;17.13;;;7.65;;
65174;SDS011;51761;42.126;24.752;2022-07-24T05:51:58;13.50;;;8.23;;
65174;SDS011;51761;42.126;24.752;2022-07-24T05:54:23;18.75;;;8.30;;
65174;SDS011;51761;42.126;24.752;2022-07-24T05:56:49;14.57;;;7.38;;
65174;SDS011;51761;42.126;24.752;2022-07-24T05:59:14;21.40;;;8.75;;
65174;SDS011;51761;42.126;24.752;2022-07-24T06:01:40;23.92;;;7.90;;
65174;SDS011;51761;42.126;24.752;2022-07-24T06:04:06;20.77;;;9.52;;
65174;SDS011;51761;42.126;24.752;2022-07-24T06:06:31;21.42;;;8.32;;
65174;SDS011;51761;42.126;24.752;2022-07-24T06:08:56;19.05;;;10.82;;
65174;SDS011;51761;42.126;24.752;2022-07-24T06:11:22;24.55;;;11.27;;
65174;SDS011;51761;42.126;24.752;2022-07-24T06:13:48;18.48;;;9.05;;
65174;SDS011;51761;42.126;24.752;2022-07-24T06:16:14;14.63;;;8.45;;
65174;SDS011;51761;42.126;24.752;2022-07-24T06:18:40;22.05;;;9.20;;
65174;SDS011;51761;42.126;24.752;2022-07-24T06:21:06;21.70;;;8.20;;
65174;SDS011;51761;42.126;24.752;2022-07-24T06:23:32;23.70;;;8.73;;
65174;SDS011;51761;42.126;24.752;2022-07-24T06:25:58;26.08;;;9.13;;
65174;SDS011;51761;42.126;24.752;2022-07-24T06:28:24;16.67;;;8.60;;
65174;SDS011;51761;42.126;24.752;2022-07-24T06:30:49;23.35;;;9.15;;
65174;SDS011;51761;42.126;24.752;2022-07-24T06:33:15;14.68;;;7.82;;
65174;SDS011;51761;42.126;24.752;2022-07-24T06:35:40;17.85;;;8.75;;
65174;SDS011;51761;42.126;24.752;2022-07-24T06:38:06;14.30;;;8.35;;
65174;SDS011;51761;42.126;24.752;2022-07-24T06:40:31;14.52;;;8.75;;
65174;SDS011;51761;42.126;24.752;2022-07-24T06:42:58;19.20;;;8.45;;
65174;SDS011;51761;42.126;24.752;2022-07-24T06:45:23;18.00;;;8.68;;
65174;SDS011;51761;42.126;24.752;2022-07-24T06:47:49;22.02;;;8.85;;
65174;SDS011;51761;42.126;24.752;2022-07-24T06:50:15;20.83;;;11.80;;
65174;SDS011;51761;42.126;24.752;2022-07-24T06:52:41;19.65;;;9.80;;
65174;SDS011;51761;42.126;24.752;2022-07-24T06:55:07;17.15;;;9.63;;
65174;SDS011;51761;42.126;24.752;2022-07-24T06:57:33;19.23;;;9.52;;
65174;SDS011;51761;42.126;24.752;2022-07-24T06:59:59;20.35;;;8.57;;
65174;SDS011;51761;42.126;24.752;2022-07-24T07:02:25;16.30;;;8.73;;
65174;SDS011;51761;42.126;24.752;2022-07-24T07:04:50;15.98;;;8.75;;
65174;SDS011;51761;42.126;24.752;2022-07-24T07:07:16;16.88;;;8.73;;
65174;SDS011;51761;42.126;24.752;2022-07-24T07:09:42;21.55;;;9.00;;
65174;SDS011;51761;42.126;24.752;2022-07-24T07:12:08;15.18;;;8.30;;
65174;SDS011;51761;42.126;24.752;2022-07-24T07:14:33;15.13;;;8.40;;
65174;SDS011;51761;42.126;24.752;2022-07-24T07:16:59;22.05;;;9.52;;
65174;SDS011;51761;42.126;24.752;2022-07-24T07:19:24;22.90;;;8.93;;
65174;SDS011;51761;42.126;24.752;2022-07-24T07:21:50;23.60;;;8.90;;
65174;SDS011;51761;42.126;24.752;2022-07-24T07:24:16;14.57;;;8.52;;
65174;SDS011;51761;42.126;24.752;2022-07-24T07:26:41;25.95;;;8.43;;
65174;SDS011;51761;42.126;24.752;2022-07-24T07:29:07;24.58;;;9.23;;
65174;SDS011;51761;42.126;24.752;2022-07-24T07:31:33;17.00;;;9.48;;
65174;SDS011;51761;42.126;24.752;2022-07-24T07:33:58;20.58;;;9.52;;
65174;SDS011;51761;42.126;24.752;2022-07-24T07:36:24;15.75;;;7.95;;
65174;SDS011;51761;42.126;24.752;2022-07-24T07:38:51;17.73;;;9.10;;
65174;SDS011;51761;42.126;24.752;2022-07-24T07:41:16;17.52;;;8.85;;
65174;SDS011;51761;42.126;24.752;2022-07-24T07:43:44;15.98;;;8.10;;
65174;SDS011;51761;42.126;24.752;2022-07-24T07:46:13;18.00;;;8.57;;
65174;SDS011;51761;42.126;24.752;2022-07-24T07:48:39;17.13;;;7.50;;
65174;SDS011;51761;42.126;24.752;2022-07-24T07:51:05;23.92;;;8.13;;
65174;SDS011;51761;42.126;24.752;2022-07-24T07:53:31;17.02;;;8.05;;
65174;SDS011;51761;42.126;24.752;2022-07-24T07:55:56;15.80;;;7.93;;
65174;SDS011;51761;42.126;24.752;2022-07-24T07:58:22;22.38;;;8.13;;
65174;SDS011;51761;42.126;24.752;2022-07-24T08:00:48;14.60;;;7.93;;
65174;SDS011;51761;42.126;24.752;2022-07-24T08:03:14;17.15;;;8.27;;
65174;SDS011;51761;42.126;24.752;2022-07-24T08:05:39;14.25;;;6.70;;
65174;SDS011;51761;42.126;24.752;2022-07-24T08:08:05;15.93;;;7.15;;
65174;SDS011;51761;42.126;24.752;2022-07-24T08:10:31;13.15;;;6.22;;
65174;SDS011;51761;42.126;24.752;2022-07-24T08:12:57;12.77;;;7.47;;
65174;SDS011;51761;42.126;24.752;2022-07-24T08:15:22;14.00;;;8.20;;
65174;SDS011;51761;42.126;24.752;2022-07-24T08:17:52;20.90;;;6.20;;
65174;SDS011;51761;42.126;24.752;2022-07-24T08:20:19;16.40;;;6.70;;
65174;SDS011;51761;42.126;24.752;2022-07-24T08:22:45;12.60;;;6.55;;
65174;SDS011;51761;42.126;24.752;2022-07-24T08:25:11;14.75;;;7.22;;
65174;SDS011;51761;42.126;24.752;2022-07-24T08:27:36;20.00;;;7.63;;
65174;SDS011;51761;42.126;24.752;2022-07-24T08:30:03;15.68;;;5.60;;
65174;SDS011;51761;42.126;24.752;2022-07-24T08:32:30;12.43;;;5.57;;
65174;SDS011;51761;42.126;24.752;2022-07-24T08:34:55;12.60;;;6.00;;
65174;SDS011;51761;42.126;24.752;2022-07-24T08:37:21;14.15;;;5.68;;
65174;SDS011;51761;42.126;24.752;2022-07-24T08:39:46;19.17;;;5.28;;
65174;SDS011;51761;42.126;24.752;2022-07-24T08:42:12;14.40;;;5.72;;
65174;SDS011;51761;42.126;24.752;2022-07-24T08:44:38;9.40;;;5.70;;
65174;SDS011;51761;42.126;24.752;2022-07-24T08:47:03;12.48;;;5.50;;
65174;SDS011;51761;42.126;24.752;2022-07-24T08:49:33;13.95;;;5.68;;
65174;SDS011;51761;42.126;24.752;2022-07-24T08:52:01;10.07;;;5.13;;
65174;SDS011;51761;42.126;24.752;2022-07-24T08:54:29;12.32;;;5.03;;
65174;SDS011;51761;42.126;24.752;2022-07-24T08:56:57;12.77;;;5.55;;
65174;SDS011;51761;42.126;24.752;2022-07-24T08:59:23;11.98;;;5.78;;
65174;SDS011;51761;42.126;24.752;2022-07-24T09:01:49;12.90;;;5.50;;
65174;SDS011;51761;42.126;24.752;2022-07-24T09:07:22;9.57;;;5.43;;
65174;SDS011;51761;42.126;24.752;2022-07-24T09:12:35;14.55;;;5.90;;
65174;SDS011;51761;42.126;24.752;2022-07-24T09:15:13;18.05;;;6.28;;
65174;SDS011;51761;42.126;24.752;2022-07-24T09:17:48;11.60;;;5.53;;
65174;SDS011;51761;42.126;24.752;2022-07-24T09:20:17;8.85;;;5.53;;
65174;SDS011;51761;42.126;24.752;2022-07-24T09:22:43;16.55;;;5.50;;
65174;SDS011;51761;42.126;24.752;2022-07-24T09:27:58;15.15;;;4.88;;
65174;SDS011;51761;42.126;24.752;2022-07-24T09:33:02;11.23;;;5.45;;
65174;SDS011;51761;42.126;24.752;2022-07-24T09:35:30;12.57;;;6.20;;
65174;SDS011;51761;42.126;24.752;2022-07-24T09:38:01;8.40;;;5.65;;
65174;SDS011;51761;42.126;24.752;2022-07-24T09:40:29;14.48;;;5.22;;
65174;SDS011;51761;42.126;24.752;2022-07-24T09:48:23;9.18;;;6.30;;
65174;SDS011;51761;42.126;24.752;2022-07-24T09:50:52;13.32;;;5.45;;
65174;SDS011;51761;42.126;24.752;2022-07-24T09:53:19;19.33;;;6.38;;
65174;SDS011;51761;42.126;24.752;2022-07-24T09:58:39;15.13;;;5.93;;
65174;SDS011;51761;42.126;24.752;2022-07-24T10:01:13;10.13;;;6.05;;
65174;SDS011;51761;42.126;24.752;2022-07-24T10:03:40;15.15;;;5.40;;
65174;SDS011;51761;42.126;24.752;2022-07-24T10:06:08;16.20;;;6.10;;
65174;SDS011;51761;42.126;24.752;2022-07-24T10:08:39;12.20;;;6.00;;
65174;SDS011;51761;42.126;24.752;2022-07-24T10:11:07;14.40;;;7.80;;
65174;SDS011;51761;42.126;24.752;2022-07-24T10:13:33;12.30;;;5.43;;
65174;SDS011;51761;42.126;24.752;2022-07-24T10:18:47;14.95;;;6.25;;
65174;SDS011;51761;42.126;24.752;2022-07-24T10:21:17;14.15;;;6.07;;
65174;SDS011;51761;42.126;24.752;2022-07-24T10:26:43;18.30;;;8.55;;
65174;SDS011;51761;42.126;24.752;2022-07-24T10:29:14;19.95;;;8.60;;
65174;SDS011;51761;42.126;24.752;2022-07-24T10:31:45;11.55;;;6.35;;
65174;SDS011;51761;42.126;24.752;2022-07-24T10:42:32;14.68;;;7.00;;
65174;SDS011;51761;42.126;24.752;2022-07-24T10:45:16;22.85;;;7.00;;
65174;SDS011;51761;42.126;24.752;2022-07-24T10:47:44;13.43;;;6.82;;
65174;SDS011;51761;42.126;24.752;2022-07-24T10:50:11;16.98;;;8.15;;
65174;SDS011;51761;42.126;24.752;2022-07-24T10:52:37;16.17;;;7.10;;
65174;SDS011;51761;42.126;24.752;2022-07-24T10:57:48;19.77;;;5.70;;
65174;SDS011;51761;42.126;24.752;2022-07-24T11:00:26;16.05;;;6.18;;
65174;SDS011;51761;42.126;24.752;2022-07-24T11:03:00;15.30;;;7.97;;
65174;SDS011;51761;42.126;24.752;2022-07-24T11:05:29;10.35;;;5.60;;
65174;SDS011;51761;42.126;24.752;2022-07-24T11:10:49;15.75;;;6.75;;
65174;SDS011;51761;42.126;24.752;2022-07-24T11:21:48;11.75;;;5.57;;
65174;SDS011;51761;42.126;24.752;2022-07-24T11:26:47;14.35;;;5.90;;
65174;SDS011;51761;42.126;24.752;2022-07-24T11:29:19;10.10;;;5.63;;
65174;SDS011;51761;42.126;24.752;2022-07-24T11:31:55;20.08;;;6.35;;
65174;SDS011;51761;42.126;24.752;2022-07-24T11:34:24;13.40;;;6.47;;
65174;SDS011;51761;42.126;24.752;2022-07-24T11:36:54;12.82;;;6.10;;
65174;SDS011;51761;42.126;24.752;2022-07-24T11:39:26;17.70;;;6.70;;
65174;SDS011;51761;42.126;24.752;2022-07-24T11:41:55;11.30;;;5.90;;
65174;SDS011;51761;42.126;24.752;2022-07-24T11:44:25;18.67;;;6.53;;
65174;SDS011;51761;42.126;24.752;2022-07-24T11:46:56;14.05;;;6.45;;
65174;SDS011;51761;42.126;24.752;2022-07-24T11:49:23;11.95;;;6.97;;
65174;SDS011;51761;42.126;24.752;2022-07-24T11:51:50;9.43;;;6.00;;
65174;SDS011;51761;42.126;24.752;2022-07-24T11:54:24;11.40;;;6.65;;
65174;SDS011;51761;42.126;24.752;2022-07-24T11:56:52;9.85;;;5.78;;
65174;SDS011;51761;42.126;24.752;2022-07-24T11:59:22;19.65;;;7.07;;
65174;SDS011;51761;42.126;24.752;2022-07-24T12:01:49;20.73;;;6.22;;
65174;SDS011;51761;42.126;24.752;2022-07-24T12:04:21;9.90;;;5.63;;
65174;SDS011;51761;42.126;24.752;2022-07-24T12:06:47;13.57;;;6.10;;
65174;SDS011;51761;42.126;24.752;2022-07-24T12:09:13;11.95;;;5.97;;
65174;SDS011;51761;42.126;24.752;2022-07-24T12:11:38;8.90;;;5.15;;
65174;SDS011;51761;42.126;24.752;2022-07-24T12:16:44;10.48;;;5.78;;
65174;SDS011;51761;42.126;24.752;2022-07-24T12:19:16;14.23;;;5.85;;
65174;SDS011;51761;42.126;24.752;2022-07-24T12:21:50;12.82;;;6.38;;
65174;SDS011;51761;42.126;24.752;2022-07-24T12:24:17;15.93;;;6.25;;
65174;SDS011;51761;42.126;24.752;2022-07-24T12:26:56;11.30;;;6.10;;
65174;SDS011;51761;42.126;24.752;2022-07-24T12:29:24;18.35;;;5.82;;
65174;SDS011;51761;42.126;24.752;2022-07-24T12:34:43;11.13;;;6.50;;
65174;SDS011;51761;42.126;24.752;2022-07-24T12:37:15;12.32;;;6.00;;
65174;SDS011;51761;42.126;24.752;2022-07-24T12:39:49;10.50;;;5.13;;
65174;SDS011;51761;42.126;24.752;2022-07-24T12:42:17;13.55;;;6.22;;
65174;SDS011;51761;42.126;24.752;2022-07-24T12:44:53;13.35;;;5.57;;
65174;SDS011;51761;42.126;24.752;2022-07-24T12:47:19;11.60;;;6.05;;
65174;SDS011;51761;42.126;24.752;2022-07-24T12:49:45;11.32;;;5.45;;
65174;SDS011;51761;42.126;24.752;2022-07-24T12:52:22;11.50;;;4.57;;
65174;SDS011;51761;42.126;24.752;2022-07-24T12:57:15;7.85;;;5.50;;
65174;SDS011;51761;42.126;24.752;2022-07-24T12:59:43;11.40;;;5.35;;
65174;SDS011;51761;42.126;24.752;2022-07-24T13:02:11;16.38;;;5.85;;
65174;SDS011;51761;42.126;24.752;2022-07-24T13:04:53;10.10;;;5.97;;
65174;SDS011;51761;42.126;24.752;2022-07-24T13:07:23;16.63;;;6.45;;
65174;SDS011;51761;42.126;24.752;2022-07-24T13:09:50;8.93;;;5.40;;
65174;SDS011;51761;42.126;24.752;2022-07-24T13:12:16;14.15;;;5.70;;
65174;SDS011;51761;42.126;24.752;2022-07-24T13:14:42;9.07;;;6.30;;
65174;SDS011;51761;42.126;24.752;2022-07-24T13:17:09;9.23;;;4.80;;
65174;SDS011;51761;42.126;24.752;2022-07-24T13:19:43;13.27;;;5.90;;
65174;SDS011;51761;42.126;24.752;2022-07-24T13:22:10;18.58;;;5.43;;
65174;SDS011;51761;42.126;24.752;2022-07-24T13:24:36;8.98;;;5.20;;
65174;SDS011;51761;42.126;24.752;2022-07-24T13:27:03;13.52;;;6.03;;
65174;SDS011;51761;42.126;24.752;2022-07-24T13:29:33;10.18;;;6.55;;
65174;SDS011;51761;42.126;24.752;2022-07-24T13:31:59;12.85;;;7.55;;
65174;SDS011;51761;42.126;24.752;2022-07-24T13:34:25;8.52;;;5.88;;
65174;SDS011;51761;42.126;24.752;2022-07-24T13:36:52;13.32;;;6.05;;
65174;SDS011;51761;42.126;24.752;2022-07-24T13:39:17;9.50;;;6.03;;
65174;SDS011;51761;42.126;24.752;2022-07-24T13:41:43;8.48;;;5.65;;
65174;SDS011;51761;42.126;24.752;2022-07-24T13:44:08;14.52;;;6.97;;
65174;SDS011;51761;42.126;24.752;2022-07-24T13:46:34;12.52;;;6.80;;
65174;SDS011;51761;42.126;24.752;2022-07-24T13:49:01;6.95;;;5.90;;
65174;SDS011;51761;42.126;24.752;2022-07-24T13:51:28;15.30;;;7.40;;
65174;SDS011;51761;42.126;24.752;2022-07-24T13:53:54;9.05;;;5.95;;
65174;SDS011;51761;42.126;24.752;2022-07-24T13:56:20;13.38;;;6.40;;
65174;SDS011;51761;42.126;24.752;2022-07-24T13:58:47;11.38;;;6.15;;
65174;SDS011;51761;42.126;24.752;2022-07-24T14:01:13;7.35;;;5.57;;
65174;SDS011;51761;42.126;24.752;2022-07-24T14:03:39;10.15;;;5.80;;
65174;SDS011;51761;42.126;24.752;2022-07-24T14:06:06;10.57;;;5.93;;
65174;SDS011;51761;42.126;24.752;2022-07-24T14:08:33;10.55;;;5.32;;
65174;SDS011;51761;42.126;24.752;2022-07-24T14:10:58;17.23;;;6.50;;
65174;SDS011;51761;42.126;24.752;2022-07-24T14:13:24;11.70;;;5.65;;
65174;SDS011;51761;42.126;24.752;2022-07-24T14:15:49;15.45;;;5.55;;
65174;SDS011;51761;42.126;24.752;2022-07-24T14:18:15;12.77;;;5.80;;
65174;SDS011;51761;42.126;24.752;2022-07-24T14:20:41;12.20;;;5.72;;
65174;SDS011;51761;42.126;24.752;2022-07-24T14:23:06;9.35;;;5.43;;
65174;SDS011;51761;42.126;24.752;2022-07-24T14:25:32;11.90;;;5.60;;
65174;SDS011;51761;42.126;24.752;2022-07-24T14:27:57;12.02;;;5.72;;
65174;SDS011;51761;42.126;24.752;2022-07-24T14:30:23;15.23;;;5.97;;
65174;SDS011;51761;42.126;24.752;2022-07-24T14:32:49;10.90;;;5.70;;
65174;SDS011;51761;42.126;24.752;2022-07-24T14:35:15;13.05;;;5.82;;
65174;SDS011;51761;42.126;24.752;2022-07-24T14:37:40;10.40;;;6.00;;
65174;SDS011;51761;42.126;24.752;2022-07-24T14:40:07;14.00;;;6.13;;
65174;SDS011;51761;42.126;24.752;2022-07-24T14:42:34;13.32;;;5.80;;
65174;SDS011;51761;42.126;24.752;2022-07-24T14:45:00;11.18;;;5.82;;
65174;SDS011;51761;42.126;24.752;2022-07-24T14:47:26;9.35;;;6.13;;
65174;SDS011;51761;42.126;24.752;2022-07-24T14:49:51;15.70;;;5.80;;
65174;SDS011;51761;42.126;24.752;2022-07-24T14:52:17;10.27;;;5.85;;
65174;SDS011;51761;42.126;24.752;2022-07-24T14:54:46;6.85;;;5.60;;
65174;SDS011;51761;42.126;24.752;2022-07-24T14:57:12;9.38;;;5.88;;
65174;SDS011;51761;42.126;24.752;2022-07-24T14:59:38;8.27;;;5.55;;
65174;SDS011;51761;42.126;24.752;2022-07-24T15:02:04;16.83;;;6.35;;
65174;SDS011;51761;42.126;24.752;2022-07-24T15:04:29;17.77;;;7.40;;
65174;SDS011;51761;42.126;24.752;2022-07-24T15:06:55;14.35;;;7.93;;
65174;SDS011;51761;42.126;24.752;2022-07-24T15:09:21;13.02;;;6.28;;
65174;SDS011;51761;42.126;24.752;2022-07-24T15:11:46;13.45;;;6.57;;
65174;SDS011;51761;42.126;24.752;2022-07-24T15:14:12;9.98;;;6.40;;
65174;SDS011;51761;42.126;24.752;2022-07-24T15:16:38;17.35;;;6.68;;
65174;SDS011;51761;42.126;24.752;2022-07-24T15:19:04;17.90;;;7.57;;